Time;durP1;ratioP1;P1;durP2;ratioP2;P2;SDS_P1;SDS_P2;PMS_P1;PMS_P2;Temp;Humidity;BMP_temperature;BMP_pressure;BME280_temperature;BME280_humidity;BME280_pressure;Samples;Min_cycle;Max_cycle;Signal;HPM_P1;HPM_P2
2023/11/24 00:02:03;;;;;;;2.83;0.30;;;7.40;99.90;;;;;;5008584;28;20084;-66
2023/11/24 00:04:29;;;;;;;2.35;0.30;;;7.40;99.90;;;;;;4999239;28;20086;-66
2023/11/24 00:06:55;;;;;;;5.28;0.65;;;7.40;99.90;;;;;;5010556;28;20039;-67
2023/11/24 00:09:29;;;;;;;4.63;0.85;;;7.30;99.90;;;;;;5003458;28;20070;-67
2023/11/24 00:11:55;;;;;;;2.75;0.85;;;7.20;99.90;;;;;;5007682;28;20494;-66
2023/11/24 00:14:21;;;;;;;0.63;0.20;;;7.30;99.90;;;;;;5008402;28;20065;-67
2023/11/24 00:16:47;;;;;;;4.00;0.50;;;7.20;99.90;;;;;;5002604;28;20070;-67
2023/11/24 00:19:16;;;;;;;0.73;0.10;;;7.10;99.90;;;;;;5007574;28;20037;-67
2023/11/24 00:21:43;;;;;;;1.08;0.40;;;7.00;99.90;;;;;;5002578;28;20047;-67
2023/11/24 00:24:08;;;;;;;1.85;0.10;;;7.00;99.90;;;;;;5018561;28;20371;-67
2023/11/24 00:26:34;;;;;;;0.40;0.20;;;7.00;99.90;;;;;;5000242;28;20471;-67
2023/11/24 00:29:00;;;;;;;1.48;0.20;;;6.90;99.90;;;;;;5002285;28;20096;-67
2023/11/24 00:31:26;;;;;;;1.40;0.55;;;6.90;99.90;;;;;;5004569;28;20080;-67
2023/11/24 00:33:58;;;;;;;2.60;0.15;;;6.80;99.90;;;;;;5002426;28;20034;-67
2023/11/24 00:36:24;;;;;;;5.68;0.98;;;6.80;99.90;;;;;;5006733;28;20061;-67
2023/11/24 00:38:50;;;;;;;8.90;0.35;;;6.80;99.90;;;;;;5002745;28;20073;-67
2023/11/24 00:41:17;;;;;;;2.95;0.30;;;6.70;99.90;;;;;;5029610;28;20054;-67
2023/11/24 00:43:43;;;;;;;1.30;0.20;;;6.60;99.90;;;;;;5000650;28;20030;-67
2023/11/24 00:46:10;;;;;;;1.90;0.43;;;6.60;99.90;;;;;;5033584;28;20121;-67
2023/11/24 00:48:36;;;;;;;0.50;0.32;;;6.50;99.90;;;;;;5004775;28;20063;-67
2023/11/24 00:51:02;;;;;;;6.53;0.63;;;6.60;99.90;;;;;;5035050;28;20126;-67
2023/11/24 00:53:28;;;;;;;2.92;0.25;;;6.50;99.90;;;;;;5003796;28;20100;-67
2023/11/24 00:55:54;;;;;;;6.22;0.50;;;6.60;99.90;;;;;;5035419;28;20043;-67
2023/11/24 00:58:20;;;;;;;2.85;0.55;;;6.70;99.90;;;;;;5007448;28;20478;-67
2023/11/24 01:00:46;;;;;;;3.40;1.15;;;6.70;99.90;;;;;;5003510;28;20153;-67
2023/11/24 01:03:11;;;;;;;0.10;0.10;;;6.80;99.90;;;;;;5002786;28;20045;-67
2023/11/24 01:05:37;;;;;;;1.35;0.30;;;6.90;99.90;;;;;;5001036;28;20120;-67
2023/11/24 01:08:03;;;;;;;3.30;0.20;;;7.00;99.90;;;;;;5003364;28;20050;-67
2023/11/24 01:10:29;;;;;;;6.45;0.88;;;7.00;99.90;;;;;;5035424;28;20046;-66
2023/11/24 01:12:54;;;;;;;6.88;0.50;;;7.10;99.90;;;;;;5000816;28;20045;-67
2023/11/24 01:15:21;;;;;;;3.30;1.25;;;7.10;99.90;;;;;;5032918;28;20117;-67
2023/11/24 01:17:47;;;;;;;1.88;0.40;;;7.00;99.90;;;;;;5006465;28;20197;-67
2023/11/24 01:20:14;;;;;;;1.02;0.52;;;7.00;99.90;;;;;;5005211;28;20109;-67
2023/11/24 01:22:40;;;;;;;1.25;0.47;;;7.00;99.90;;;;;;5001579;28;20041;-67
2023/11/24 01:25:07;;;;;;;0.20;0.13;;;7.00;99.90;;;;;;4988521;28;20097;-67
2023/11/24 01:27:33;;;;;;;2.28;0.35;;;7.10;99.90;;;;;;5004667;28;20046;-67
2023/11/24 01:29:59;;;;;;;0.80;0.10;;;7.00;99.90;;;;;;5004813;28;20029;-67
2023/11/24 01:32:25;;;;;;;0.63;0.05;;;7.00;99.90;;;;;;4998631;28;20041;-67
2023/11/24 01:34:51;;;;;;;0.25;0.10;;;7.10;99.90;;;;;;5017849;28;20410;-67
2023/11/24 01:37:16;;;;;;;0.35;0.30;;;7.10;99.90;;;;;;4999995;28;20029;-67
2023/11/24 01:39:42;;;;;;;4.63;1.42;;;7.10;99.90;;;;;;5031173;28;20050;-68
2023/11/24 01:42:08;;;;;;;1.55;0.63;;;7.20;99.90;;;;;;4999175;28;20042;-66
2023/11/24 01:44:34;;;;;;;1.00;0.25;;;7.20;99.90;;;;;;5000035;28;20409;-67
2023/11/24 01:46:59;;;;;;;2.22;0.73;;;7.20;99.90;;;;;;5001946;28;20052;-67
2023/11/24 01:49:27;;;;;;;1.65;0.60;;;7.10;99.90;;;;;;4998315;28;20069;-67
2023/11/24 01:51:54;;;;;;;0.32;0.10;;;7.10;99.90;;;;;;5031995;28;20067;-67
2023/11/24 01:54:22;;;;;;;8.48;0.70;;;7.10;99.90;;;;;;5036710;28;20228;-67
2023/11/24 01:56:49;;;;;;;2.00;0.38;;;7.00;99.90;;;;;;5001986;28;20045;-67
2023/11/24 01:59:14;;;;;;;2.50;0.63;;;6.90;99.90;;;;;;4996678;28;20111;-67
2023/11/24 02:01:40;;;;;;;2.55;0.93;;;6.90;99.90;;;;;;4997703;28;20116;-67
2023/11/24 02:04:06;;;;;;;4.78;0.45;;;6.80;99.90;;;;;;5000691;28;20049;-67
2023/11/24 02:06:32;;;;;;;4.80;0.75;;;6.80;99.90;;;;;;5032618;28;20038;-67
2023/11/24 02:08:58;;;;;;;0.75;0.10;;;6.70;99.90;;;;;;4993633;28;20054;-67
2023/11/24 02:11:24;;;;;;;1.23;0.65;;;6.70;99.90;;;;;;4995534;28;20045;-67
2023/11/24 02:13:50;;;;;;;1.13;0.15;;;6.70;99.90;;;;;;4998729;28;20053;-67
2023/11/24 02:16:16;;;;;;;4.10;0.28;;;6.60;99.90;;;;;;5002048;28;20395;-66
2023/11/24 02:18:42;;;;;;;4.47;1.05;;;6.60;99.90;;;;;;5028115;28;20096;-67
2023/11/24 02:21:11;;;;;;;1.08;0.10;;;6.50;99.90;;;;;;4993667;28;20469;-67
2023/11/24 02:23:37;;;;;;;7.25;0.30;;;6.50;99.90;;;;;;5033561;28;20502;-66
2023/11/24 02:26:03;;;;;;;4.20;0.75;;;6.40;99.90;;;;;;5033479;28;20121;-66
2023/11/24 02:28:29;;;;;;;1.73;1.20;;;6.50;99.90;;;;;;5001757;28;20482;-67
2023/11/24 02:30:59;;;;;;;0.55;0.25;;;6.60;99.90;;;;;;5048010;28;20042;-66
2023/11/24 02:33:28;;;;;;;3.72;0.20;;;6.50;99.90;;;;;;5032034;28;20123;-66
2023/11/24 02:35:54;;;;;;;0.00;0.00;;;6.50;99.90;;;;;;5034797;28;20046;-66
2023/11/24 02:38:21;;;;;;;2.92;1.00;;;6.50;99.90;;;;;;5012977;28;20117;-66
2023/11/24 02:40:47;;;;;;;0.25;0.05;;;6.50;99.90;;;;;;4999081;28;20554;-65
2023/11/24 02:43:13;;;;;;;0.00;0.00;;;6.50;99.90;;;;;;5033592;28;20128;-66
2023/11/24 02:45:40;;;;;;;7.88;0.63;;;6.50;99.90;;;;;;4999252;28;20058;-67
2023/11/24 02:48:05;;;;;;;3.17;0.35;;;6.50;99.90;;;;;;5024908;28;20053;-67
2023/11/24 02:50:31;;;;;;;6.55;0.47;;;6.50;99.90;;;;;;5034008;28;20035;-66
2023/11/24 02:52:57;;;;;;;0.38;0.10;;;6.40;99.90;;;;;;5000490;28;20041;-66
2023/11/24 02:55:22;;;;;;;1.23;0.55;;;6.40;99.90;;;;;;4997714;28;20543;-66
2023/11/24 02:57:48;;;;;;;1.65;0.57;;;6.50;99.90;;;;;;4999325;28;20026;-66
2023/11/24 03:00:16;;;;;;;0.85;0.13;;;6.40;99.90;;;;;;5017193;28;20073;-67
2023/11/24 03:02:43;;;;;;;0.98;0.17;;;6.40;99.90;;;;;;5000948;28;20105;-67
2023/11/24 03:05:08;;;;;;;1.95;0.73;;;6.40;99.90;;;;;;5030356;28;20041;-67
2023/11/24 03:07:35;;;;;;;2.28;0.22;;;6.50;99.90;;;;;;4998887;28;20057;-68
2023/11/24 03:10:03;;;;;;;1.60;0.30;;;6.50;99.90;;;;;;4999229;28;20402;-68
2023/11/24 03:12:28;;;;;;;1.85;0.25;;;6.60;99.90;;;;;;5052315;28;20049;-67
2023/11/24 03:14:54;;;;;;;0.30;0.15;;;6.60;99.90;;;;;;5031388;28;20414;-67
2023/11/24 03:17:23;;;;;;;1.67;0.28;;;6.60;99.90;;;;;;5001681;28;20457;-67
2023/11/24 03:19:49;;;;;;;3.50;0.82;;;6.50;99.90;;;;;;5003324;28;20031;-67
2023/11/24 03:22:15;;;;;;;0.05;0.00;;;6.40;99.90;;;;;;5034520;28;20555;-67
2023/11/24 03:24:41;;;;;;;0.70;0.30;;;6.30;99.90;;;;;;4999964;28;20135;-67
2023/11/24 03:27:07;;;;;;;1.05;0.43;;;6.30;99.90;;;;;;5002901;28;20035;-67
2023/11/24 03:29:35;;;;;;;1.58;0.85;;;6.20;99.90;;;;;;5004290;28;20433;-67
2023/11/24 03:32:01;;;;;;;6.50;0.45;;;6.20;99.90;;;;;;4999136;28;20042;-67
2023/11/24 03:34:26;;;;;;;1.15;0.10;;;6.10;99.90;;;;;;5005823;28;20122;-67
2023/11/24 03:36:52;;;;;;;2.13;0.30;;;6.10;99.90;;;;;;5004752;28;20057;-67
2023/11/24 03:39:21;;;;;;;5.05;0.68;;;6.10;99.90;;;;;;5038515;28;20061;-67
2023/11/24 03:41:47;;;;;;;0.35;0.15;;;6.00;99.90;;;;;;5002473;28;20043;-67
2023/11/24 03:44:13;;;;;;;0.43;0.38;;;6.00;99.90;;;;;;5036885;28;20050;-67
2023/11/24 03:46:39;;;;;;;0.00;0.00;;;6.00;99.90;;;;;;5004729;28;20460;-67
2023/11/24 03:49:06;;;;;;;1.17;0.25;;;5.90;99.90;;;;;;5039022;28;20128;-67
2023/11/24 03:51:32;;;;;;;0.30;0.20;;;5.90;99.90;;;;;;5035185;28;20120;-67
2023/11/24 03:53:59;;;;;;;4.13;0.40;;;5.90;99.90;;;;;;5003689;28;20053;-66
2023/11/24 03:56:25;;;;;;;3.13;0.40;;;5.90;99.90;;;;;;5006336;28;20124;-66
2023/11/24 03:58:51;;;;;;;0.15;0.00;;;5.80;99.90;;;;;;5004107;28;20109;-66
2023/11/24 04:01:17;;;;;;;0.50;0.22;;;5.90;99.90;;;;;;5005346;28;20562;-67
2023/11/24 04:03:46;;;;;;;0.60;0.10;;;5.90;99.90;;;;;;5034458;28;20041;-66
2023/11/24 04:06:12;;;;;;;0.75;0.10;;;5.90;99.90;;;;;;5002660;28;20042;-67
2023/11/24 04:08:39;;;;;;;0.00;0.00;;;6.00;99.90;;;;;;5038176;28;20086;-66
2023/11/24 04:11:05;;;;;;;6.60;0.52;;;6.00;99.90;;;;;;5003640;28;20068;-66
2023/11/24 04:13:31;;;;;;;1.15;0.28;;;6.00;99.90;;;;;;5037305;28;20034;-66
2023/11/24 04:15:57;;;;;;;3.60;0.88;;;6.00;99.90;;;;;;5035769;28;20049;-66
2023/11/24 04:18:24;;;;;;;3.80;0.75;;;6.00;99.90;;;;;;5002583;28;20038;-67
2023/11/24 04:20:50;;;;;;;0.65;0.25;;;5.90;99.90;;;;;;5037689;28;20759;-67
2023/11/24 04:23:17;;;;;;;0.82;0.10;;;5.80;99.90;;;;;;5008786;28;20042;-67
2023/11/24 04:25:43;;;;;;;0.52;0.30;;;5.80;99.90;;;;;;5004830;28;20045;-67
2023/11/24 04:28:10;;;;;;;1.83;0.47;;;5.70;99.90;;;;;;5034702;28;20326;-66
2023/11/24 04:30:37;;;;;;;5.47;0.52;;;5.60;99.90;;;;;;5034838;28;20065;-67
2023/11/24 04:33:03;;;;;;;3.63;0.43;;;5.50;99.90;;;;;;5008413;28;20045;-66
2023/11/24 04:35:29;;;;;;;1.42;0.03;;;5.50;99.90;;;;;;5002494;28;20165;-67
2023/11/24 04:37:55;;;;;;;2.75;0.38;;;5.50;99.90;;;;;;5036698;28;20049;-66
2023/11/24 04:40:20;;;;;;;6.63;0.30;;;5.40;99.90;;;;;;5050661;28;20467;-67
2023/11/24 04:42:46;;;;;;;0.10;0.10;;;5.40;99.90;;;;;;5016413;28;20048;-66
2023/11/24 04:45:12;;;;;;;6.13;0.57;;;5.40;99.90;;;;;;5006783;28;20042;-66
2023/11/24 04:47:39;;;;;;;2.17;0.40;;;5.40;99.90;;;;;;5041174;28;20542;-66
2023/11/24 04:50:08;;;;;;;3.78;0.38;;;5.50;99.90;;;;;;5002236;28;20454;-69
2023/11/24 04:52:36;;;;;;;0.68;0.30;;;5.60;99.90;;;;;;5002928;28;20398;-69
2023/11/24 04:55:03;;;;;;;0.00;0.00;;;5.50;99.90;;;;;;5039852;28;20037;-69
2023/11/24 04:57:31;;;;;;;0.68;0.55;;;5.50;99.90;;;;;;4990759;28;20046;-69
2023/11/24 04:59:57;;;;;;;0.32;0.00;;;5.50;99.90;;;;;;4996934;28;20045;-68
2023/11/24 05:02:23;;;;;;;5.30;0.45;;;5.50;99.90;;;;;;5040186;28;20402;-68
2023/11/24 05:04:50;;;;;;;4.90;0.43;;;5.50;99.90;;;;;;5051473;28;20076;-68
2023/11/24 05:07:18;;;;;;;0.35;0.00;;;5.50;99.90;;;;;;5006664;28;20399;-67
2023/11/24 05:09:45;;;;;;;5.63;0.73;;;5.50;99.90;;;;;;5033840;28;20095;-67
2023/11/24 05:12:11;;;;;;;1.77;0.38;;;5.40;99.90;;;;;;5004502;28;20037;-67
2023/11/24 05:14:36;;;;;;;0.00;0.00;;;5.30;99.90;;;;;;5033841;28;20418;-66
2023/11/24 05:17:02;;;;;;;0.77;0.10;;;5.30;99.90;;;;;;5001369;28;20483;-66
2023/11/24 05:19:28;;;;;;;0.20;0.20;;;5.20;99.90;;;;;;4996094;28;20046;-66
2023/11/24 05:21:53;;;;;;;5.93;0.80;;;5.20;99.90;;;;;;5004708;28;20064;-66
2023/11/24 05:24:19;;;;;;;1.60;0.10;;;5.10;99.90;;;;;;5034284;28;20517;-65
2023/11/24 05:26:45;;;;;;;0.00;0.00;;;5.00;99.90;;;;;;5033473;28;20038;-65
2023/11/24 05:29:10;;;;;;;0.00;0.00;;;5.00;99.90;;;;;;5035141;28;20038;-66
2023/11/24 05:31:36;;;;;;;0.17;0.08;;;4.90;99.90;;;;;;4998796;28;20104;-66
2023/11/24 05:34:03;;;;;;;4.15;0.73;;;4.80;99.90;;;;;;5002926;28;20046;-66
2023/11/24 05:36:29;;;;;;;0.00;0.00;;;4.70;99.90;;;;;;4999336;28;20304;-66
2023/11/24 05:38:57;;;;;;;0.30;0.15;;;4.70;99.90;;;;;;4987632;28;20073;-66
2023/11/24 05:41:22;;;;;;;0.00;0.00;;;4.70;99.90;;;;;;4997901;28;20045;-66
2023/11/24 05:43:48;;;;;;;0.00;0.00;;;4.70;99.90;;;;;;5004187;28;20034;-66
2023/11/24 05:46:14;;;;;;;0.00;0.00;;;4.70;99.90;;;;;;5000269;28;20034;-67
2023/11/24 05:48:39;;;;;;;0.88;0.00;;;4.70;99.90;;;;;;5006494;28;20079;-68
2023/11/24 05:51:05;;;;;;;0.60;0.10;;;4.90;99.90;;;;;;5003970;28;20042;-69
2023/11/24 05:53:31;;;;;;;0.75;0.00;;;4.90;99.90;;;;;;5038215;28;20049;-69
2023/11/24 05:55:57;;;;;;;0.52;0.15;;;4.90;99.90;;;;;;5002600;28;20253;-69
2023/11/24 05:58:23;;;;;;;0.00;0.00;;;5.10;99.90;;;;;;5017140;28;20048;-69
2023/11/24 06:00:49;;;;;;;0.05;0.03;;;5.20;99.90;;;;;;5007197;28;20041;-68
2023/11/24 06:03:15;;;;;;;0.25;0.00;;;5.20;99.90;;;;;;5038207;28;20045;-67
2023/11/24 06:05:41;;;;;;;0.15;0.15;;;5.30;99.90;;;;;;5003274;28;20041;-67
2023/11/24 06:08:07;;;;;;;1.13;0.30;;;5.10;99.90;;;;;;5031097;28;20058;-67
2023/11/24 06:10:33;;;;;;;0.00;0.00;;;5.20;99.90;;;;;;5000697;28;20052;-67
2023/11/24 06:12:59;;;;;;;1.35;0.22;;;5.10;99.90;;;;;;5005852;28;20100;-67
2023/11/24 06:15:26;;;;;;;2.60;0.20;;;5.00;99.90;;;;;;5006928;28;20081;-67
2023/11/24 06:17:51;;;;;;;1.17;0.25;;;5.00;99.90;;;;;;5000251;28;20053;-66
2023/11/24 06:20:17;;;;;;;0.00;0.00;;;5.00;99.90;;;;;;5008892;28;20542;-66
2023/11/24 06:22:43;;;;;;;0.00;0.00;;;5.00;99.90;;;;;;5006316;28;20069;-67
2023/11/24 06:25:13;;;;;;;0.10;0.00;;;5.00;99.90;;;;;;4999988;28;20046;-67
2023/11/24 06:27:39;;;;;;;0.00;0.00;;;5.10;99.90;;;;;;5001810;28;20049;-68
2023/11/24 06:30:06;;;;;;;0.15;0.05;;;5.20;99.90;;;;;;5005804;28;20484;-67
2023/11/24 06:32:33;;;;;;;0.25;0.00;;;5.20;99.90;;;;;;5043128;28;20473;-68
2023/11/24 06:34:59;;;;;;;0.00;0.00;;;5.20;99.90;;;;;;5024414;28;20049;-67
2023/11/24 06:37:25;;;;;;;0.30;0.22;;;5.20;99.90;;;;;;5025841;28;20511;-67
2023/11/24 06:39:50;;;;;;;0.00;0.00;;;5.20;99.90;;;;;;5007227;28;20061;-67
2023/11/24 06:42:16;;;;;;;0.00;0.00;;;5.20;99.90;;;;;;5043493;28;20057;-67
2023/11/24 06:44:42;;;;;;;0.00;0.00;;;5.20;99.90;;;;;;4999617;28;20061;-67
2023/11/24 06:47:08;;;;;;;0.20;0.20;;;5.10;99.90;;;;;;5038589;28;20419;-67
2023/11/24 06:49:34;;;;;;;0.35;0.17;;;5.10;99.90;;;;;;5008377;28;20041;-67
2023/11/24 06:52:01;;;;;;;0.30;0.00;;;5.10;99.90;;;;;;5006154;28;20037;-67
2023/11/24 06:54:29;;;;;;;0.08;0.00;;;5.10;99.90;;;;;;4982875;28;20053;-67
2023/11/24 06:56:55;;;;;;;0.05;0.00;;;5.10;99.90;;;;;;4998378;28;20038;-67
2023/11/24 06:59:22;;;;;;;1.23;0.55;;;5.10;99.90;;;;;;5034988;28;20517;-68
2023/11/24 07:01:48;;;;;;;0.52;0.35;;;5.10;99.90;;;;;;5006432;28;20053;-68
2023/11/24 07:04:16;;;;;;;1.17;0.03;;;5.10;99.90;;;;;;5035473;28;20371;-67
2023/11/24 07:06:41;;;;;;;0.00;0.00;;;5.10;99.90;;;;;;5037177;28;20111;-70
2023/11/24 07:09:07;;;;;;;0.70;0.32;;;5.20;99.90;;;;;;5006046;28;20065;-68
2023/11/24 07:11:33;;;;;;;0.43;0.20;;;5.20;99.90;;;;;;5007979;28;20124;-68
2023/11/24 07:13:59;;;;;;;6.60;0.13;;;5.20;99.90;;;;;;5009555;28;20049;-67
2023/11/24 07:16:25;;;;;;;0.10;0.10;;;5.20;99.90;;;;;;5002968;28;20053;-67
2023/11/24 07:18:52;;;;;;;1.33;0.82;;;5.30;99.90;;;;;;5006453;28;20040;-68
2023/11/24 07:21:18;;;;;;;0.00;0.00;;;5.30;99.90;;;;;;5010488;28;20125;-67
2023/11/24 07:23:44;;;;;;;0.10;0.10;;;5.20;99.90;;;;;;5001595;28;20467;-68
2023/11/24 07:26:15;;;;;;;0.00;0.00;;;5.20;99.90;;;;;;4999451;28;20050;-69
2023/11/24 07:28:44;;;;;;;1.00;0.38;;;5.10;99.90;;;;;;5007629;28;20457;-69
2023/11/24 07:31:14;;;;;;;0.60;0.00;;;5.10;99.90;;;;;;5035807;28;20457;-69
2023/11/24 07:33:41;;;;;;;1.45;0.40;;;5.10;99.90;;;;;;5002296;28;20056;-69
2023/11/24 07:36:08;;;;;;;4.03;0.35;;;5.10;99.90;;;;;;5007647;28;20351;-69
2023/11/24 07:38:35;;;;;;;0.95;0.30;;;5.00;99.90;;;;;;5009950;28;20049;-69
2023/11/24 07:41:04;;;;;;;0.52;0.10;;;5.00;99.90;;;;;;5007948;28;20105;-69
2023/11/24 07:43:31;;;;;;;4.05;0.38;;;5.00;99.90;;;;;;5007360;28;20034;-69
2023/11/24 07:45:58;;;;;;;1.35;0.10;;;5.00;99.90;;;;;;5036848;28;20046;-69
2023/11/24 07:48:23;;;;;;;0.32;0.10;;;4.90;99.90;;;;;;5039503;28;20107;-68
2023/11/24 07:50:49;;;;;;;0.00;0.00;;;4.90;99.90;;;;;;5005951;28;20041;-67
2023/11/24 07:53:15;;;;;;;1.13;0.20;;;4.90;99.90;;;;;;5040222;28;20033;-68
2023/11/24 07:55:42;;;;;;;0.80;0.00;;;4.90;99.90;;;;;;5002641;28;20501;-67
2023/11/24 07:58:07;;;;;;;0.47;0.20;;;4.90;99.90;;;;;;5003793;28;20061;-67
2023/11/24 08:00:34;;;;;;;0.47;0.15;;;4.90;99.90;;;;;;5002460;28;20056;-67
2023/11/24 08:03:01;;;;;;;0.20;0.17;;;4.90;99.90;;;;;;5005789;28;20160;-67
2023/11/24 08:05:49;;;;;;;0.73;0.25;;;5.00;99.90;;;;;;4989519;28;20048;-67
2023/11/24 08:08:15;;;;;;;0.03;0.00;;;5.00;99.90;;;;;;5002913;28;20046;-66
2023/11/24 08:10:41;;;;;;;2.42;0.45;;;5.00;99.90;;;;;;5002325;28;20042;-66
2023/11/24 08:13:07;;;;;;;0.40;0.00;;;5.00;99.90;;;;;;5005720;28;20049;-67
2023/11/24 08:15:34;;;;;;;0.28;0.10;;;5.10;99.90;;;;;;5040976;28;20057;-66
2023/11/24 08:18:00;;;;;;;4.40;0.30;;;5.10;99.90;;;;;;5002669;28;20046;-66
2023/11/24 08:20:26;;;;;;;0.00;0.00;;;5.00;99.90;;;;;;5004462;28;20413;-66
2023/11/24 08:22:52;;;;;;;0.43;0.08;;;5.10;99.90;;;;;;5047080;28;20601;-66
2023/11/24 08:25:18;;;;;;;0.00;0.00;;;5.00;99.90;;;;;;5004139;28;20490;-66
2023/11/24 08:27:44;;;;;;;1.50;0.52;;;5.00;99.90;;;;;;5002517;28;20046;-66
2023/11/24 08:30:11;;;;;;;0.00;0.00;;;5.00;99.90;;;;;;5000865;28;20183;-65
2023/11/24 08:32:40;;;;;;;0.00;0.00;;;5.00;99.90;;;;;;5007898;28;20116;-65
2023/11/24 08:35:07;;;;;;;1.90;0.43;;;5.00;99.90;;;;;;5003937;28;20129;-66
2023/11/24 08:37:36;;;;;;;0.00;0.00;;;5.10;99.90;;;;;;5008604;28;20099;-66
2023/11/24 08:40:10;;;;;;;0.63;0.20;;;5.10;99.90;;;;;;5033261;28;20098;-65
2023/11/24 08:42:38;;;;;;;2.70;0.60;;;5.20;99.90;;;;;;5002282;28;20581;-65
2023/11/24 08:45:06;;;;;;;0.22;0.00;;;5.20;99.90;;;;;;5002389;28;20100;-65
2023/11/24 08:47:32;;;;;;;0.22;0.03;;;5.30;99.90;;;;;;5004768;28;20064;-65
2023/11/24 08:49:57;;;;;;;0.77;0.20;;;5.40;99.90;;;;;;5003487;28;20034;-65
2023/11/24 08:52:23;;;;;;;0.10;0.10;;;5.50;99.90;;;;;;5005770;28;20057;-65
2023/11/24 08:54:49;;;;;;;2.38;0.38;;;5.50;99.90;;;;;;5004760;28;20120;-66
2023/11/24 08:57:16;;;;;;;3.15;0.00;;;5.50;99.90;;;;;;5007097;28;20034;-66
2023/11/24 08:59:42;;;;;;;0.70;0.40;;;5.60;99.90;;;;;;5033074;28;20053;-64
2023/11/24 09:02:08;;;;;;;2.28;0.47;;;5.60;99.90;;;;;;5010241;28;20551;-65
2023/11/24 09:04:34;;;;;;;1.13;0.43;;;5.70;99.90;;;;;;5004502;28;20045;-65
2023/11/24 09:07:00;;;;;;;0.00;0.00;;;5.80;99.90;;;;;;5002439;28;20501;-65
2023/11/24 09:09:29;;;;;;;2.13;0.22;;;5.80;99.90;;;;;;5010214;28;20057;-64
2023/11/24 09:11:55;;;;;;;2.95;0.20;;;5.80;99.90;;;;;;5007365;28;20422;-65
2023/11/24 09:14:21;;;;;;;0.47;0.25;;;5.80;99.90;;;;;;5004268;28;20594;-65
2023/11/24 09:16:46;;;;;;;6.68;0.32;;;5.80;99.90;;;;;;5030506;28;20132;-65
2023/11/24 09:19:12;;;;;;;6.05;0.70;;;5.90;99.90;;;;;;5000189;28;20405;-64
2023/11/24 09:21:38;;;;;;;0.43;0.25;;;6.00;99.90;;;;;;5001320;28;20041;-64
2023/11/24 09:24:04;;;;;;;4.18;0.10;;;6.10;99.90;;;;;;5002910;28;20096;-65
2023/11/24 09:26:30;;;;;;;2.15;0.57;;;6.10;99.90;;;;;;4991969;28;20411;-65
2023/11/24 09:28:56;;;;;;;0.43;0.22;;;6.10;99.90;;;;;;5003523;28;20041;-65
2023/11/24 09:31:22;;;;;;;3.28;0.75;;;6.10;99.90;;;;;;4997652;28;20187;-66
2023/11/24 09:33:47;;;;;;;1.08;0.17;;;6.00;99.90;;;;;;4999767;28;20040;-65
2023/11/24 09:36:13;;;;;;;0.50;0.10;;;6.00;99.90;;;;;;5033047;28;20121;-65
2023/11/24 09:38:40;;;;;;;0.08;0.00;;;5.90;99.90;;;;;;4999606;28;20037;-65
2023/11/24 09:41:08;;;;;;;1.85;0.20;;;5.80;99.90;;;;;;5003843;28;20046;-65
2023/11/24 09:43:40;;;;;;;3.55;0.47;;;5.80;99.90;;;;;;4999601;28;20042;-65
2023/11/24 09:46:08;;;;;;;3.40;0.65;;;5.80;99.90;;;;;;4999903;28;20038;-65
2023/11/24 09:48:34;;;;;;;0.68;0.30;;;5.80;99.90;;;;;;5002211;28;20500;-65
2023/11/24 09:51:06;;;;;;;1.42;0.40;;;6.00;99.90;;;;;;5004693;28;20077;-65
2023/11/24 09:53:35;;;;;;;1.45;0.30;;;6.20;99.90;;;;;;5004280;28;20055;-65
2023/11/24 09:56:05;;;;;;;1.83;0.65;;;6.20;99.90;;;;;;4993161;28;20046;-65
2023/11/24 09:58:32;;;;;;;0.10;0.00;;;6.20;99.90;;;;;;5002523;28;20528;-65
2023/11/24 10:01:16;;;;;;;1.15;0.52;;;6.30;99.90;;;;;;5001907;28;20057;-65
2023/11/24 10:03:46;;;;;;;1.85;0.20;;;6.30;99.90;;;;;;5001012;28;20050;-65
2023/11/24 10:06:13;;;;;;;0.05;0.05;;;6.50;99.90;;;;;;5000987;28;20060;-65
2023/11/24 10:08:40;;;;;;;1.05;0.15;;;6.70;99.90;;;;;;5005364;28;20189;-65
2023/11/24 10:11:17;;;;;;;8.20;0.95;;;6.80;99.90;;;;;;5004130;28;20047;-66
2023/11/24 10:13:45;;;;;;;2.47;0.15;;;6.80;99.90;;;;;;4994712;28;20070;-65
2023/11/24 10:16:11;;;;;;;7.40;0.45;;;6.70;99.90;;;;;;5007248;28;20037;-65
2023/11/24 10:18:38;;;;;;;0.00;0.00;;;6.60;99.90;;;;;;5005989;28;20434;-66
2023/11/24 10:21:09;;;;;;;3.03;0.52;;;6.50;99.90;;;;;;5006347;28;20632;-66
2023/11/24 10:23:35;;;;;;;1.20;0.10;;;6.40;99.90;;;;;;5033061;28;20517;-66
2023/11/24 10:26:01;;;;;;;3.03;0.25;;;6.50;99.90;;;;;;4995348;28;20042;-66
2023/11/24 10:28:27;;;;;;;2.97;0.43;;;6.50;99.90;;;;;;5036204;28;20050;-66
2023/11/24 10:30:55;;;;;;;5.13;0.80;;;6.60;99.90;;;;;;5001543;28;20040;-65
2023/11/24 10:33:24;;;;;;;0.00;0.00;;;6.60;99.90;;;;;;4999955;28;20074;-65
2023/11/24 10:35:54;;;;;;;1.45;0.47;;;6.80;99.90;;;;;;5006060;28;20499;-66
2023/11/24 10:38:20;;;;;;;2.05;0.38;;;6.90;99.90;;;;;;5004755;28;20050;-66
2023/11/24 10:40:51;;;;;;;13.85;1.02;;;7.00;99.90;;;;;;5004573;28;20410;-66
2023/11/24 10:43:20;;;;;;;0.57;0.05;;;7.20;99.90;;;;;;5001122;28;20046;-67
2023/11/24 10:45:51;;;;;;;3.38;0.45;;;7.30;99.90;;;;;;5031492;28;20058;-66
2023/11/24 10:48:21;;;;;;;1.73;0.47;;;7.20;99.90;;;;;;5006922;28;20478;-68
2023/11/24 10:50:58;;;;;;;2.30;0.55;;;7.10;99.90;;;;;;5032857;28;20117;-68
2023/11/24 10:53:28;;;;;;;1.15;0.43;;;6.70;99.90;;;;;;5000360;28;20057;-67
2023/11/24 10:55:54;;;;;;;0.32;0.20;;;6.50;99.90;;;;;;5037546;28;20103;-67
2023/11/24 10:58:21;;;;;;;0.47;0.15;;;6.30;99.90;;;;;;5040368;28;20038;-67
2023/11/24 11:00:47;;;;;;;2.30;0.43;;;6.20;99.90;;;;;;5031706;28;20046;-66
2023/11/24 11:03:16;;;;;;;4.53;1.45;;;6.10;99.90;;;;;;5005179;28;20511;-66
2023/11/24 11:06:15;;;;;;;0.30;0.20;;;6.00;99.90;;;;;;5003080;28;20508;-66
2023/11/24 11:08:57;;;;;;;0.03;0.00;;;6.10;99.90;;;;;;5004529;28;20062;-66
2023/11/24 11:12:03;;;;;;;3.15;0.52;;;6.20;99.90;;;;;;5037467;28;20103;-66
2023/11/24 11:14:28;;;;;;;3.92;0.17;;;6.30;99.90;;;;;;5053611;28;20506;-66
2023/11/24 11:16:54;;;;;;;3.85;0.57;;;6.60;99.90;;;;;;5036745;28;20061;-66
2023/11/24 11:19:33;;;;;;;0.93;0.77;;;6.80;99.90;;;;;;5004657;28;20455;-66
2023/11/24 11:22:00;;;;;;;0.00;0.00;;;6.80;99.90;;;;;;5002846;28;20042;-66
2023/11/24 11:24:29;;;;;;;2.45;0.20;;;6.70;99.90;;;;;;5004860;28;20205;-66
2023/11/24 11:26:57;;;;;;;0.10;0.10;;;6.50;99.90;;;;;;5005466;28;20050;-66
2023/11/24 11:29:31;;;;;;;1.35;0.13;;;6.50;99.90;;;;;;5034531;28;20057;-66
2023/11/24 11:31:57;;;;;;;0.35;0.25;;;6.50;99.90;;;;;;5001400;28;20038;-66
2023/11/24 11:34:31;;;;;;;4.30;0.50;;;6.60;99.90;;;;;;5039945;28;20105;-66
2023/11/24 11:37:06;;;;;;;1.08;0.38;;;6.60;99.90;;;;;;5007398;28;20117;-66
2023/11/24 11:39:37;;;;;;;3.20;0.20;;;6.50;99.90;;;;;;5000532;28;20042;-66
2023/11/24 11:42:04;;;;;;;1.45;0.20;;;6.50;99.90;;;;;;5001869;28;20037;-67
2023/11/24 11:44:39;;;;;;;8.38;0.55;;;6.50;99.90;;;;;;5004397;28;20046;-67
2023/11/24 11:47:31;;;;;;;0.30;0.00;;;6.50;99.90;;;;;;5038508;28;20511;-66
2023/11/24 11:49:57;;;;;;;4.13;0.50;;;6.50;99.90;;;;;;5028233;28;20052;-67
2023/11/24 11:52:25;;;;;;;3.72;0.45;;;6.40;99.90;;;;;;5031011;28;20475;-67
2023/11/24 11:54:52;;;;;;;4.13;0.43;;;6.30;99.90;;;;;;5002613;28;20045;-67
2023/11/24 11:57:20;;;;;;;9.40;1.15;;;6.30;99.90;;;;;;5002700;28;20041;-67
2023/11/24 11:59:47;;;;;;;2.10;0.47;;;6.20;99.90;;;;;;5024455;28;20125;-67
2023/11/24 12:02:17;;;;;;;0.38;0.00;;;6.10;99.90;;;;;;5005277;28;20041;-67
2023/11/24 12:04:44;;;;;;;1.90;0.63;;;6.10;99.90;;;;;;5002574;28;20050;-67
2023/11/24 12:07:12;;;;;;;2.83;0.35;;;6.00;99.90;;;;;;5000430;28;20474;-66
2023/11/24 12:09:39;;;;;;;0.08;0.08;;;6.10;99.90;;;;;;4995895;28;20058;-67
2023/11/24 12:12:05;;;;;;;0.32;0.10;;;6.10;99.90;;;;;;4999555;28;20491;-67
2023/11/24 12:14:31;;;;;;;2.50;0.47;;;6.10;99.90;;;;;;4996894;28;20045;-67
2023/11/24 12:16:57;;;;;;;2.40;0.10;;;6.20;99.90;;;;;;5038376;28;20041;-67
2023/11/24 12:19:29;;;;;;;1.25;0.20;;;6.30;99.90;;;;;;5034399;28;20042;-66
2023/11/24 12:21:59;;;;;;;0.10;0.10;;;6.40;99.90;;;;;;5006392;28;20447;-66
2023/11/24 12:24:26;;;;;;;1.30;0.50;;;6.50;99.90;;;;;;5004702;28;20168;-66
2023/11/24 12:26:56;;;;;;;1.52;0.30;;;6.60;99.90;;;;;;5033902;28;20509;-66
2023/11/24 12:29:26;;;;;;;2.72;0.13;;;6.70;99.90;;;;;;4999308;28;20030;-66
2023/11/24 12:31:53;;;;;;;0.25;0.08;;;6.80;99.90;;;;;;5007495;28;20304;-66
2023/11/24 12:34:20;;;;;;;2.10;0.40;;;7.00;99.90;;;;;;5037974;28;20108;-66
2023/11/24 12:36:53;;;;;;;0.10;0.08;;;7.00;99.90;;;;;;5005768;28;20406;-66
2023/11/24 12:39:22;;;;;;;0.17;0.17;;;7.10;99.90;;;;;;5002258;28;20049;-68
2023/11/24 12:41:48;;;;;;;0.52;0.10;;;7.00;99.90;;;;;;5004585;28;20049;-68
2023/11/24 12:44:14;;;;;;;0.00;0.00;;;6.50;99.90;;;;;;5037836;28;20053;-68
2023/11/24 12:46:40;;;;;;;1.10;0.20;;;5.90;99.90;;;;;;5031879;28;20492;-69
2023/11/24 12:49:09;;;;;;;1.75;0.30;;;5.40;99.90;;;;;;5031764;28;20044;-69
2023/11/24 12:51:42;;;;;;;4.95;0.28;;;5.10;99.90;;;;;;5023520;28;20108;-68
2023/11/24 12:54:08;;;;;;;0.28;0.15;;;5.00;99.90;;;;;;5035697;28;20045;-68
2023/11/24 12:56:35;;;;;;;2.03;0.45;;;5.00;99.90;;;;;;5033897;28;20506;-68
2023/11/24 12:59:03;;;;;;;3.78;0.98;;;5.00;99.90;;;;;;5005760;28;20490;-68